createdAt,value
2023-01-19T00:00:56.909Z,20.77
2023-01-19T00:03:23.874Z,16.77
2023-01-19T00:05:51.405Z,18.40
2023-01-19T00:08:18.845Z,17.60
2023-01-19T00:10:51.094Z,21.08
2023-01-19T00:13:18.381Z,19.00
2023-01-19T00:15:45.372Z,19.80
2023-01-19T00:18:12.471Z,20.83
2023-01-19T00:20:41.098Z,19.08
2023-01-19T00:23:08.805Z,19.05
2023-01-19T00:25:42.593Z,19.38
2023-01-19T00:28:16.057Z,18.30
2023-01-19T00:30:43.736Z,17.70
2023-01-19T00:33:15.916Z,19.98
2023-01-19T00:35:43.688Z,20.95
2023-01-19T00:38:12.532Z,17.10
2023-01-19T00:40:39.571Z,16.33
2023-01-19T00:43:06.573Z,19.17
2023-01-19T00:45:34.049Z,19.23
2023-01-19T00:48:01.527Z,19.92
2023-01-19T00:50:30.619Z,21.38
2023-01-19T00:53:01.086Z,18.20
2023-01-19T00:55:30.937Z,18.35
2023-01-19T00:57:58.503Z,16.70
2023-01-19T01:00:26.505Z,19.13
2023-01-19T01:02:54.353Z,17.90
2023-01-19T01:05:21.756Z,20.13
2023-01-19T01:07:49.790Z,19.13
2023-01-19T01:10:34.867Z,21.33
2023-01-19T01:13:20.538Z,18.42
2023-01-19T01:15:53.840Z,19.73
2023-01-19T01:18:21.624Z,20.33
2023-01-19T01:20:48.851Z,20.98
2023-01-19T01:23:15.935Z,23.73
2023-01-19T01:25:43.457Z,19.02
2023-01-19T01:28:10.462Z,20.58
2023-01-19T01:30:41.133Z,23.98
2023-01-19T01:33:08.323Z,19.83
2023-01-19T01:35:35.295Z,19.33
2023-01-19T01:38:02.296Z,18.48
2023-01-19T01:40:29.945Z,21.40
2023-01-19T01:42:57.042Z,17.17
2023-01-19T01:45:38.407Z,19.13
2023-01-19T01:48:30.779Z,19.10
2023-01-19T01:51:22.661Z,20.58
2023-01-19T01:53:59.197Z,19.27
2023-01-19T01:56:34.962Z,19.85
2023-01-19T01:59:09.500Z,20.33
2023-01-19T02:04:24.018Z,21.55
2023-01-19T02:07:09.538Z,21.52
2023-01-19T02:09:56.620Z,19.95
2023-01-19T02:12:42.569Z,21.10
2023-01-19T02:15:20.619Z,26.02
2023-01-19T02:17:48.170Z,21.30
2023-01-19T02:20:16.122Z,19.70
2023-01-19T02:22:50.047Z,21.17
2023-01-19T02:25:19.399Z,18.92
2023-01-19T02:27:48.068Z,19.25
2023-01-19T02:30:16.726Z,21.92
2023-01-19T02:32:44.281Z,20.17
2023-01-19T02:35:13.042Z,21.38
2023-01-19T02:37:42.099Z,22.85
2023-01-19T02:40:13.956Z,24.83
2023-01-19T02:42:49.924Z,24.10
2023-01-19T02:45:22.230Z,20.92
2023-01-19T02:47:52.921Z,19.45
2023-01-19T02:50:50.467Z,20.77
2023-01-19T02:54:04.026Z,20.20
2023-01-19T02:56:37.217Z,22.15
2023-01-19T02:59:39.184Z,19.10
2023-01-19T03:02:29.573Z,19.40
2023-01-19T03:05:08.605Z,20.08
2023-01-19T03:08:26.857Z,19.85
2023-01-19T03:11:04.726Z,16.55
2023-01-19T03:13:52.902Z,21.90
2023-01-19T03:16:39.089Z,18.60
2023-01-19T03:19:19.742Z,16.42
2023-01-19T03:21:54.679Z,17.80
2023-01-19T03:24:25.140Z,18.20
2023-01-19T03:27:00.896Z,16.48
2023-01-19T03:29:37.194Z,17.25
2023-01-19T03:32:11.285Z,18.25
2023-01-19T03:34:41.836Z,19.17
2023-01-19T03:37:13.975Z,17.55
2023-01-19T03:39:41.200Z,18.92
2023-01-19T03:42:16.920Z,19.58
2023-01-19T03:44:50.544Z,19.67
2023-01-19T03:47:20.132Z,19.17
2023-01-19T03:49:51.654Z,18.50
2023-01-19T03:52:27.444Z,16.88
2023-01-19T03:54:54.533Z,16.58
2023-01-19T03:57:22.128Z,15.15
2023-01-19T03:59:49.563Z,14.52
2023-01-19T04:02:16.647Z,13.07
2023-01-19T04:04:43.709Z,13.93
2023-01-19T04:07:11.562Z,15.73
2023-01-19T04:09:38.574Z,12.35
2023-01-19T04:12:05.769Z,13.38
2023-01-19T04:14:32.908Z,12.05
2023-01-19T04:17:00.305Z,12.00
2023-01-19T04:19:27.411Z,12.35
2023-01-19T04:21:55.388Z,11.13
2023-01-19T04:24:22.491Z,10.70
2023-01-19T04:26:53.398Z,12.43
2023-01-19T04:29:20.485Z,11.15
2023-01-19T04:31:47.425Z,11.32
2023-01-19T04:34:14.463Z,11.05
2023-01-19T04:36:41.460Z,11.45
2023-01-19T04:39:09.210Z,11.23
2023-01-19T04:41:36.283Z,10.55
2023-01-19T04:44:04.094Z,12.73
2023-01-19T04:46:31.098Z,12.40
2023-01-19T04:48:58.148Z,11.77
2023-01-19T04:51:25.161Z,11.63
2023-01-19T04:53:52.112Z,12.75
2023-01-19T04:56:19.083Z,11.38
2023-01-19T04:58:46.103Z,10.82
2023-01-19T05:01:13.169Z,9.43
2023-01-19T05:03:40.353Z,10.00
2023-01-19T05:06:07.902Z,7.85
2023-01-19T05:08:34.955Z,7.47
2023-01-19T05:11:01.955Z,7.88
2023-01-19T05:13:29.037Z,7.10
2023-01-19T05:15:56.016Z,7.55
2023-01-19T05:18:23.063Z,6.13
2023-01-19T05:20:50.219Z,6.95
2023-01-19T05:23:17.290Z,5.63
2023-01-19T05:25:44.567Z,5.75
2023-01-19T05:28:11.868Z,6.00
2023-01-19T05:30:39.055Z,6.55
2023-01-19T05:33:06.032Z,4.95
2023-01-19T05:35:36.314Z,4.80
2023-01-19T05:38:04.169Z,4.40
2023-01-19T05:40:31.347Z,4.75
2023-01-19T05:43:01.758Z,5.00
2023-01-19T05:45:28.997Z,6.72
2023-01-19T05:47:56.067Z,4.03
2023-01-19T05:50:23.302Z,5.80
2023-01-19T05:52:53.133Z,4.72
2023-01-19T05:55:21.202Z,4.53
2023-01-19T05:57:48.183Z,6.05
2023-01-19T06:00:16.084Z,4.50
2023-01-19T06:02:43.576Z,3.63
2023-01-19T06:05:10.681Z,5.80
2023-01-19T06:07:37.722Z,3.88
2023-01-19T06:10:05.710Z,4.28
2023-01-19T06:12:32.677Z,3.78
2023-01-19T06:14:59.633Z,4.70
2023-01-19T06:17:26.653Z,4.82
2023-01-19T06:19:53.617Z,5.18
2023-01-19T06:22:20.804Z,4.72
2023-01-19T06:24:47.772Z,4.97
2023-01-19T06:27:14.789Z,5.80
2023-01-19T06:29:42.065Z,5.40
2023-01-19T06:32:09.037Z,6.75
2023-01-19T06:34:36.029Z,5.35
2023-01-19T06:37:03.903Z,5.88
2023-01-19T06:39:31.263Z,7.97
2023-01-19T06:41:58.259Z,7.90
2023-01-19T06:44:25.767Z,8.18
2023-01-19T06:46:53.336Z,11.38
2023-01-19T06:49:40.763Z,8.30
2023-01-19T06:52:11.487Z,9.43
2023-01-19T06:54:38.455Z,8.63
2023-01-19T06:57:05.611Z,8.55
2023-01-19T06:59:32.599Z,12.75
2023-01-19T07:01:59.744Z,11.68
2023-01-19T07:04:27.124Z,12.15
2023-01-19T07:06:54.116Z,14.00
2023-01-19T07:09:21.301Z,11.82
2023-01-19T07:11:48.519Z,16.38
2023-01-19T07:14:16.467Z,14.43
2023-01-19T07:16:43.607Z,16.75
2023-01-19T07:19:14.373Z,14.10
2023-01-19T07:21:41.350Z,19.23
2023-01-19T07:24:08.421Z,19.42
2023-01-19T07:26:35.405Z,19.88
2023-01-19T07:29:02.413Z,20.05
2023-01-19T07:31:29.401Z,16.80
2023-01-19T07:33:56.581Z,22.13
2023-01-19T07:36:23.661Z,20.05
2023-01-19T07:38:50.659Z,20.15
2023-01-19T07:41:17.610Z,20.08
2023-01-19T07:43:44.617Z,22.60
2023-01-19T07:46:11.678Z,23.20
2023-01-19T07:48:38.707Z,22.30
2023-01-19T07:51:10.435Z,25.35
2023-01-19T07:53:40.033Z,25.08
2023-01-19T07:56:07.770Z,26.00
2023-01-19T07:58:34.733Z,27.27
2023-01-19T08:01:07.607Z,27.27
2023-01-19T08:03:34.795Z,27.30
2023-01-19T08:06:02.630Z,26.85
2023-01-19T08:08:30.165Z,29.25
2023-01-19T08:10:57.115Z,30.52
2023-01-19T08:13:24.724Z,26.85
2023-01-19T08:15:53.779Z,27.13
2023-01-19T08:18:21.599Z,28.10
2023-01-19T08:20:48.783Z,31.80
2023-01-19T08:23:15.747Z,29.17
2023-01-19T08:25:45.134Z,29.08
2023-01-19T08:28:15.927Z,33.40
2023-01-19T08:30:45.089Z,29.75
2023-01-19T08:33:13.310Z,28.08
2023-01-19T08:35:43.582Z,29.35
2023-01-19T08:38:11.230Z,35.72
2023-01-19T08:40:41.096Z,31.50
2023-01-19T08:43:13.227Z,32.63
2023-01-19T08:45:48.129Z,32.00
2023-01-19T08:48:18.723Z,29.33
2023-01-19T08:50:47.712Z,32.00
2023-01-19T08:53:15.976Z,32.55
2023-01-19T08:55:43.225Z,36.40
2023-01-19T08:58:10.797Z,36.03
2023-01-19T09:00:39.653Z,30.83
2023-01-19T09:03:11.364Z,37.75
2023-01-19T09:05:39.588Z,33.58
2023-01-19T09:08:11.011Z,33.17
2023-01-19T09:10:39.952Z,32.25
2023-01-19T09:13:11.034Z,30.60
2023-01-19T09:15:40.261Z,31.42
2023-01-19T09:18:13.673Z,34.30
2023-01-19T09:20:45.160Z,31.65
2023-01-19T09:23:16.527Z,37.00
2023-01-19T09:25:46.290Z,39.53
2023-01-19T09:28:16.438Z,30.13
2023-01-19T09:30:44.743Z,34.83
2023-01-19T09:33:16.008Z,32.55
2023-01-19T09:35:45.510Z,29.23
2023-01-19T09:38:15.245Z,23.15
2023-01-19T09:40:56.399Z,22.58
2023-01-19T09:43:54.629Z,22.77
2023-01-19T09:46:39.601Z,27.67
2023-01-19T09:49:33.420Z,24.05
2023-01-19T09:52:00.820Z,26.95
2023-01-19T09:54:50.186Z,23.92
2023-01-19T09:57:17.183Z,27.92
2023-01-19T09:59:47.784Z,29.63
2023-01-19T10:02:39.084Z,28.88
2023-01-19T10:05:23.837Z,29.65
2023-01-19T10:08:23.128Z,32.83
2023-01-19T10:10:56.717Z,31.00
2023-01-19T10:13:49.704Z,39.27
2023-01-19T10:16:53.177Z,37.17
2023-01-19T10:19:32.726Z,35.55
2023-01-19T10:22:10.590Z,42.15
2023-01-19T10:24:43.458Z,39.08
2023-01-19T10:27:20.816Z,34.15
2023-01-19T10:29:48.305Z,37.90
2023-01-19T10:32:30.790Z,38.55
2023-01-19T10:34:59.796Z,38.60
2023-01-19T10:37:37.770Z,41.33
2023-01-19T10:40:10.755Z,39.63
2023-01-19T10:42:41.896Z,41.63
2023-01-19T10:45:23.616Z,41.28
2023-01-19T10:47:52.800Z,42.75
2023-01-19T10:50:37.200Z,47.45
2023-01-19T10:53:06.562Z,44.97
2023-01-19T10:55:40.143Z,47.30
2023-01-19T10:58:31.142Z,37.00
2023-01-19T11:01:26.017Z,37.85
2023-01-19T11:03:55.452Z,40.17
2023-01-19T11:06:30.736Z,37.42
2023-01-19T11:09:20.116Z,41.63
2023-01-19T11:11:52.886Z,37.08
2023-01-19T11:14:26.389Z,33.28
2023-01-19T11:16:57.861Z,37.03
2023-01-19T11:19:30.071Z,35.63
2023-01-19T11:22:21.616Z,32.17
2023-01-19T11:24:49.924Z,31.80
2023-01-19T11:27:20.410Z,31.25
2023-01-19T11:29:53.996Z,34.00
2023-01-19T11:32:23.419Z,30.43
2023-01-19T11:34:50.781Z,34.70
2023-01-19T11:37:20.514Z,35.53
2023-01-19T11:39:51.928Z,32.50
2023-01-19T11:42:20.876Z,34.25
2023-01-19T11:44:59.720Z,28.25
2023-01-19T11:47:45.949Z,30.08
2023-01-19T11:50:34.681Z,26.17
2023-01-19T11:53:10.948Z,32.40
2023-01-19T11:55:49.825Z,33.78
2023-01-19T11:58:19.352Z,27.98
2023-01-19T12:01:21.076Z,27.92
2023-01-19T12:04:16.056Z,26.23
2023-01-19T12:06:50.037Z,26.90
2023-01-19T12:09:42.687Z,28.73
2023-01-19T12:12:29.022Z,23.98
2023-01-19T12:15:33.964Z,25.58
2023-01-19T12:18:05.334Z,25.65
2023-01-19T12:20:40.690Z,24.25
2023-01-19T12:23:10.652Z,26.50
2023-01-19T12:25:59.491Z,25.88
2023-01-19T12:28:34.981Z,21.83
2023-01-19T12:31:03.178Z,22.30
2023-01-19T12:33:39.919Z,23.02
2023-01-19T12:36:41.116Z,17.77
2023-01-19T12:39:21.873Z,22.75
2023-01-19T12:42:03.995Z,24.48
2023-01-19T12:44:34.230Z,22.35
2023-01-19T12:47:21.002Z,20.85
2023-01-19T12:49:55.177Z,23.45
2023-01-19T12:52:39.290Z,25.83
2023-01-19T12:55:34.552Z,23.63
2023-01-19T13:00:50.325Z,20.83
2023-01-19T13:03:17.347Z,24.60
2023-01-19T13:05:44.304Z,31.30
2023-01-19T13:08:13.942Z,22.45
2023-01-19T13:10:56.267Z,19.95
2023-01-19T13:13:42.362Z,23.92
2023-01-19T13:16:18.816Z,24.85
2023-01-19T13:18:56.161Z,22.30
2023-01-19T13:21:30.273Z,19.40
2023-01-19T13:24:22.506Z,22.75
2023-01-19T13:26:49.457Z,20.67
2023-01-19T13:29:33.924Z,20.73
2023-01-19T13:32:06.405Z,16.40
2023-01-19T13:34:39.117Z,18.33
2023-01-19T13:37:15.106Z,19.60
2023-01-19T13:39:45.717Z,18.92
2023-01-19T13:42:31.579Z,20.20
2023-01-19T13:45:04.639Z,17.55
2023-01-19T13:47:45.909Z,19.70
2023-01-19T13:50:26.351Z,16.35
2023-01-19T13:52:55.722Z,14.55
2023-01-19T13:55:25.072Z,12.40
2023-01-19T13:57:53.127Z,18.25
2023-01-19T14:00:24.916Z,17.13
2023-01-19T14:03:00.898Z,16.40
2023-01-19T14:05:35.352Z,13.13
2023-01-19T14:10:39.853Z,14.77
2023-01-19T14:13:44.706Z,15.20
2023-01-19T14:16:17.892Z,15.73
2023-01-19T14:18:44.943Z,15.63
2023-01-19T14:21:15.683Z,20.90
2023-01-19T14:24:07.844Z,19.00
2023-01-19T14:26:38.137Z,20.65
2023-01-19T14:29:32.854Z,16.50
2023-01-19T14:32:00.249Z,22.13
2023-01-19T14:34:50.336Z,16.95
2023-01-19T14:37:28.300Z,15.80
2023-01-19T14:40:04.774Z,22.50
2023-01-19T14:42:42.344Z,15.45
2023-01-19T14:45:24.922Z,17.50
2023-01-19T14:48:29.341Z,19.50
2023-01-19T14:51:04.401Z,17.42
2023-01-19T14:53:38.531Z,24.05
2023-01-19T14:56:07.209Z,28.83
2023-01-19T14:58:35.717Z,24.35
2023-01-19T15:01:04.623Z,19.10
2023-01-19T15:03:44.849Z,25.60
2023-01-19T15:06:17.181Z,20.85
2023-01-19T15:08:45.543Z,25.17
2023-01-19T15:11:33.948Z,24.98
2023-01-19T15:14:02.659Z,24.55
2023-01-19T15:16:34.064Z,23.90
2023-01-19T15:19:01.221Z,22.75
2023-01-19T15:21:28.267Z,26.55
2023-01-19T15:23:55.818Z,21.88
2023-01-19T15:26:26.019Z,22.83
2023-01-19T15:28:53.651Z,33.30
2023-01-19T15:31:24.632Z,24.77
2023-01-19T15:33:52.009Z,24.67
2023-01-19T15:36:21.953Z,30.45
2023-01-19T15:38:51.112Z,111.60
2023-01-19T15:41:29.813Z,62.50
2023-01-19T15:43:57.423Z,30.80
2023-01-19T15:46:26.179Z,36.30
2023-01-19T15:48:55.260Z,30.45
2023-01-19T15:51:25.909Z,31.77
2023-01-19T15:53:55.282Z,39.35
2023-01-19T15:56:29.270Z,31.13
2023-01-19T15:58:58.663Z,56.70
2023-01-19T16:01:31.560Z,42.42
2023-01-19T16:04:01.548Z,40.30
2023-01-19T16:06:30.707Z,73.00
2023-01-19T16:09:01.889Z,31.67
2023-01-19T16:11:33.684Z,30.05
2023-01-19T16:14:01.647Z,31.98
2023-01-19T16:16:28.847Z,35.58
2023-01-19T16:18:56.512Z,27.60
2023-01-19T16:21:23.897Z,36.17
2023-01-19T16:23:51.351Z,30.45
2023-01-19T16:26:35.012Z,28.58
2023-01-19T16:29:09.930Z,32.75
2023-01-19T16:31:42.386Z,33.53
2023-01-19T16:34:10.203Z,30.60
2023-01-19T16:36:40.478Z,33.13
2023-01-19T16:39:14.121Z,32.85
2023-01-19T16:41:42.979Z,36.40
2023-01-19T16:44:15.073Z,43.45
2023-01-19T16:46:45.409Z,28.77
2023-01-19T16:49:16.720Z,28.50
2023-01-19T16:51:43.846Z,30.65
2023-01-19T16:54:20.169Z,39.83
2023-01-19T16:56:47.644Z,58.80
2023-01-19T16:59:17.268Z,38.25
2023-01-19T17:01:45.527Z,39.92
2023-01-19T17:04:14.062Z,32.67
2023-01-19T17:06:41.124Z,34.72
2023-01-19T17:09:12.104Z,35.80
2023-01-19T17:11:42.988Z,32.50
2023-01-19T17:14:20.916Z,35.55
2023-01-19T17:16:48.993Z,36.28
2023-01-19T17:19:20.074Z,36.78
2023-01-19T17:21:49.715Z,35.15
2023-01-19T17:24:17.600Z,35.58
2023-01-19T17:26:45.978Z,39.05
2023-01-19T17:29:13.105Z,34.15
2023-01-19T17:31:40.337Z,33.88
2023-01-19T17:34:08.856Z,35.10
2023-01-19T17:36:36.569Z,45.97
2023-01-19T17:39:11.525Z,36.92
2023-01-19T17:41:38.730Z,38.25
2023-01-19T17:44:06.485Z,38.15
2023-01-19T17:46:37.750Z,34.58
2023-01-19T17:49:07.270Z,35.05
2023-01-19T17:51:35.573Z,40.83
2023-01-19T17:54:04.555Z,39.30
2023-01-19T17:56:36.731Z,39.03
2023-01-19T17:59:08.090Z,36.25
2023-01-19T18:01:40.350Z,40.45
2023-01-19T18:04:09.242Z,38.70
2023-01-19T18:06:39.128Z,37.22
2023-01-19T18:09:07.388Z,36.35
2023-01-19T18:11:35.499Z,46.55
2023-01-19T18:14:02.846Z,39.03
2023-01-19T18:16:30.708Z,39.80
2023-01-19T18:19:01.115Z,48.28
2023-01-19T18:21:30.787Z,94.38
2023-01-19T18:24:03.883Z,71.35
2023-01-19T18:26:33.589Z,49.58
2023-01-19T18:29:01.100Z,47.67
2023-01-19T18:31:28.204Z,49.75
2023-01-19T18:33:55.645Z,53.70
2023-01-19T18:36:23.166Z,88.70
2023-01-19T18:38:50.307Z,69.40
2023-01-19T18:41:20.648Z,52.58
2023-01-19T18:43:48.617Z,54.63
2023-01-19T18:46:16.445Z,53.63
2023-01-19T18:48:44.274Z,57.45
2023-01-19T18:51:16.577Z,49.13
2023-01-19T18:53:45.041Z,49.67
2023-01-19T18:56:15.267Z,45.63
2023-01-19T18:58:43.324Z,49.20
2023-01-19T19:01:25.473Z,49.53
2023-01-19T19:03:54.605Z,49.88
2023-01-19T19:06:24.034Z,50.08
2023-01-19T19:08:52.616Z,45.90
2023-01-19T19:11:22.351Z,46.05
2023-01-19T19:14:02.110Z,57.42
2023-01-19T19:16:30.426Z,49.58
2023-01-19T19:18:59.079Z,53.00
2023-01-19T19:21:26.629Z,57.50
2023-01-19T19:23:56.601Z,51.30
2023-01-19T19:26:27.008Z,56.63
2023-01-19T19:28:54.038Z,51.00
2023-01-19T19:31:23.564Z,62.08
2023-01-19T19:33:51.230Z,61.00
2023-01-19T19:36:20.533Z,76.85
2023-01-19T19:38:49.465Z,68.32
2023-01-19T19:41:24.533Z,70.28
2023-01-19T19:43:53.057Z,85.40
2023-01-19T19:46:22.872Z,74.50
2023-01-19T19:48:50.403Z,73.55
2023-01-19T19:51:25.676Z,69.07
2023-01-19T19:53:56.059Z,63.20
2023-01-19T19:56:25.647Z,64.40
2023-01-19T19:58:56.481Z,58.78
2023-01-19T20:01:32.930Z,56.38
2023-01-19T20:04:08.432Z,57.20
2023-01-19T20:06:38.908Z,54.17
2023-01-19T20:09:09.276Z,60.33
2023-01-19T20:11:36.495Z,60.78
2023-01-19T20:14:09.635Z,61.67
2023-01-19T20:16:37.203Z,60.97
2023-01-19T20:19:05.102Z,56.00
2023-01-19T20:21:35.821Z,64.50
2023-01-19T20:24:12.648Z,60.88
2023-01-19T20:26:43.524Z,53.47
2023-01-19T20:29:11.926Z,53.67
2023-01-19T20:31:45.296Z,54.97
2023-01-19T20:34:15.319Z,46.80
2023-01-19T20:36:43.883Z,57.08
2023-01-19T20:39:12.758Z,55.33
2023-01-19T20:41:44.752Z,62.78
2023-01-19T20:44:22.381Z,49.90
2023-01-19T20:46:50.367Z,52.33
2023-01-19T20:49:19.114Z,55.03
2023-01-19T20:51:46.966Z,64.90
2023-01-19T20:54:18.264Z,57.70
2023-01-19T20:56:45.284Z,61.20
2023-01-19T20:59:13.164Z,64.75
2023-01-19T21:01:41.097Z,64.57
2023-01-19T21:04:08.619Z,59.38
2023-01-19T21:06:36.694Z,62.65
2023-01-19T21:09:04.625Z,59.03
2023-01-19T21:11:31.754Z,64.95
2023-01-19T21:13:58.814Z,66.57
2023-01-19T21:16:29.846Z,56.38
2023-01-19T21:18:56.864Z,58.08
2023-01-19T21:21:30.819Z,63.45
2023-01-19T21:24:00.837Z,59.53
2023-01-19T21:26:30.210Z,62.50
2023-01-19T21:29:02.509Z,57.55
2023-01-19T21:31:30.281Z,56.40
2023-01-19T21:33:58.671Z,60.97
2023-01-19T21:36:26.062Z,60.50
2023-01-19T21:38:55.577Z,59.55
2023-01-19T21:41:22.866Z,70.43
2023-01-19T21:43:49.893Z,62.78
2023-01-19T21:46:28.908Z,58.45
2023-01-19T21:48:58.889Z,60.97
2023-01-19T21:51:26.159Z,64.13
2023-01-19T21:53:55.354Z,55.90
2023-01-19T21:56:22.956Z,57.13
2023-01-19T21:58:49.869Z,55.33
2023-01-19T22:01:17.152Z,51.83
2023-01-19T22:03:44.222Z,51.92
2023-01-19T22:06:14.535Z,56.67
2023-01-19T22:08:42.640Z,48.58
2023-01-19T22:11:12.710Z,52.38
2023-01-19T22:13:40.623Z,46.78
2023-01-19T22:16:14.671Z,51.28
2023-01-19T22:18:45.392Z,48.42
2023-01-19T22:21:40.120Z,51.85
2023-01-19T22:24:07.641Z,56.15
2023-01-19T22:26:34.958Z,55.00
2023-01-19T22:29:03.531Z,56.53
2023-01-19T22:31:33.400Z,53.65
2023-01-19T22:34:00.556Z,57.95
2023-01-19T22:36:36.023Z,54.38
2023-01-19T22:39:09.729Z,50.50
2023-01-19T22:41:47.183Z,57.63
2023-01-19T22:44:20.141Z,52.80
2023-01-19T22:46:48.927Z,55.47
2023-01-19T22:49:18.339Z,54.78
2023-01-19T22:51:45.715Z,53.50
2023-01-19T22:54:13.289Z,50.60
2023-01-19T22:56:40.953Z,54.72
2023-01-19T22:59:08.715Z,59.75
2023-01-19T23:01:39.906Z,53.40
2023-01-19T23:04:10.783Z,57.05
2023-01-19T23:06:38.304Z,53.65
2023-01-19T23:09:11.393Z,52.97
2023-01-19T23:11:43.739Z,63.50
2023-01-19T23:14:17.217Z,56.08
2023-01-19T23:16:44.503Z,57.08
2023-01-19T23:19:12.918Z,57.58
2023-01-19T23:21:41.650Z,54.65
2023-01-19T23:24:09.078Z,58.28
2023-01-19T23:26:39.941Z,56.40
2023-01-19T23:29:13.640Z,58.03
2023-01-19T23:31:45.999Z,55.45
2023-01-19T23:34:16.233Z,57.60
2023-01-19T23:36:43.713Z,60.00
2023-01-19T23:39:18.092Z,56.30
2023-01-19T23:41:45.562Z,54.97
2023-01-19T23:44:13.089Z,58.90
2023-01-19T23:46:40.208Z,64.90
2023-01-19T23:49:07.238Z,64.45
2023-01-19T23:51:34.923Z,58.38
2023-01-19T23:54:02.651Z,63.17
2023-01-19T23:56:34.233Z,61.13
2023-01-19T23:59:06.616Z,61.42
